Terminal Aerodrome Forecast
Issued by NWS

Home | Current Version | Previous Version | Text Only | Print | Product List | Glossary On
Versions: 1 2 3 4 5 6 7 8 9 10 11 12 13 14 15
481
FTAK31 PAJN 170537
TAFAGY
TAF
PAGY 170537Z 1706/1806 21020G28KT P6SM -SHRA SCT025 OVC050
     FM171900 21013G23KT P6SM -SHRA SCT025 OVC050
     FM172300 21013KT P6SM -SHRA OVC050
      AMD LTD TO CLD VIS AND WIND=

USA.gov is the U.S. government's official web portal to all federal, state and local government web resources and services.